Time;durP1;ratioP1;P1;durP2;ratioP2;P2;SDS_P1;SDS_P2;PMS_P1;PMS_P2;Temp;Humidity;BMP_temperature;BMP_pressure;BME280_temperature;BME280_humidity;BME280_pressure;Samples;Min_cycle;Max_cycle;Signal;HPM_P1;HPM_P2
2021/01/13 00:01:07;;;;;;;;;;;;;;;22.21;25.60;96760.41;5021198;28;993;-74
2021/01/13 00:03:32;;;;;;;;;;;;;;;21.97;25.71;96768.03;5021042;28;671;-74
2021/01/13 00:05:58;;;;;;;;;;;;;;;21.52;26.12;96772.56;5004032;28;662;-74
2021/01/13 00:08:23;;;;;;;;;;;;;;;21.67;26.62;96773.47;5020975;28;694;-74
2021/01/13 00:10:49;;;;;;;;;;;;;;;22.05;25.87;96786.25;5020682;28;885;-75
2021/01/13 00:13:14;;;;;;;;;;;;;;;22.06;25.55;96776.50;5020770;28;1910;-75
2021/01/13 00:15:40;;;;;;;;;;;;;;;22.21;25.33;96771.75;5021046;28;1023;-75
2021/01/13 00:18:05;;;;;;;;;;;;;;;22.50;25.11;96754.13;5020757;28;615;-75
2021/01/13 00:20:31;;;;;;;;;;;;;;;22.38;25.12;96755.13;5020896;28;690;-74
2021/01/13 00:22:56;;;;;;;;;;;;;;;22.39;25.31;96755.94;5020685;28;632;-75
2021/01/13 00:25:21;;;;;;;;;;;;;;;21.92;25.40;96754.53;5020331;28;939;-75
2021/01/13 00:27:47;;;;;;;;;;;;;;;21.67;25.80;96744.38;5020333;28;858;-75
2021/01/13 00:30:13;;;;;;;;;;;;;;;21.72;26.40;96747.34;5020720;28;817;-74
2021/01/13 00:32:39;;;;;;;;;;;;;;;22.13;25.52;96761.25;5020679;28;1902;-75
2021/01/13 00:35:05;;;;;;;;;;;;;;;22.21;25.38;96765.28;5020784;28;646;-74
2021/01/13 00:37:30;;;;;;;;;;;;;;;22.17;25.46;96754.13;5020418;28;686;-75
2021/01/13 00:39:56;;;;;;;;;;;;;;;22.16;25.49;96769.56;5020014;28;1047;-75
2021/01/13 00:42:21;;;;;;;;;;;;;;;22.50;25.00;96776.03;5020288;28;909;-75
2021/01/13 00:44:47;;;;;;;;;;;;;;;22.16;25.18;96768.78;5020050;28;969;-74
2021/01/13 00:47:15;;;;;;;;;;;;;;;21.88;25.64;96782.22;5020638;28;634;-74
2021/01/13 00:49:41;;;;;;;;;;;;;;;21.46;26.10;96785.78;5020311;28;949;-75
2021/01/13 00:52:09;;;;;;;;;;;;;;;21.94;25.66;96788.81;5020283;28;1898;-75
2021/01/13 00:54:34;;;;;;;;;;;;;;;22.11;25.32;96801.38;5019904;28;1002;-75
2021/01/13 00:57:00;;;;;;;;;;;;;;;22.24;25.03;96804.78;5019854;28;834;-75
2021/01/13 00:59:26;;;;;;;;;;;;;;;22.44;24.71;96811.97;5020374;28;881;-74
2021/01/13 01:01:51;;;;;;;;;;;;;;;22.52;24.68;96813.16;5020175;28;639;-75
2021/01/13 01:04:17;;;;;;;;;;;;;;;22.32;24.64;96816.56;5020193;28;654;-74
2021/01/13 01:06:45;;;;;;;;;;;;;;;21.92;25.30;96816.84;5020024;28;632;-75
2021/01/13 01:09:11;;;;;;;;;;;;;;;21.52;25.77;96806.53;5020105;28;982;-75
2021/01/13 01:11:37;;;;;;;;;;;;;;;21.65;26.19;96792.19;5019642;28;1898;-75
2021/01/13 01:14:03;;;;;;;;;;;;;;;22.02;25.41;96776.69;5019958;28;942;-75
2021/01/13 01:16:35;;;;;;;;;;;;;;;22.09;25.22;96787.66;5020086;28;649;-74
2021/01/13 01:19:01;;;;;;;;;;;;;;;22.26;24.86;96778.81;5020054;28;650;-75
2021/01/13 01:21:26;;;;;;;;;;;;;;;22.22;25.15;96773.31;5019977;28;659;-75
2021/01/13 01:23:52;;;;;;;;;;;;;;;22.28;25.01;96768.56;5019533;28;944;-75
2021/01/13 01:26:17;;;;;;;;;;;;;;;22.36;24.82;96749.94;5019590;28;846;-74
2021/01/13 01:28:43;;;;;;;;;;;;;;;22.02;25.01;96750.38;5019907;28;960;-74
2021/01/13 01:31:08;;;;;;;;;;;;;;;21.46;25.75;96752.59;5019827;28;679;-75
2021/01/13 01:33:34;;;;;;;;;;;;;;;21.76;25.64;96747.97;5020454;28;1979;-74
2021/01/13 01:35:59;;;;;;;;;;;;;;;22.03;25.02;96749.91;5019790;28;666;-75
2021/01/13 01:38:24;;;;;;;;;;;;;;;22.17;24.83;96759.78;5019516;28;961;-75
2021/01/13 01:40:50;;;;;;;;;;;;;;;22.29;24.88;96761.63;5019449;28;834;-74
2021/01/13 01:43:15;;;;;;;;;;;;;;;22.44;24.69;96749.59;5019636;28;996;-74
2021/01/13 01:45:41;;;;;;;;;;;;;;;22.47;24.28;96742.97;5019990;28;630;-75
2021/01/13 01:48:10;;;;;;;;;;;;;;;22.30;24.75;96746.19;5019797;28;647;-75
2021/01/13 01:50:36;;;;;;;;;;;;;;;22.44;24.33;96732.59;5020067;28;675;-75
2021/01/13 01:53:08;;;;;;;;;;;;;;;22.33;24.44;96738.81;5019276;28;1902;-75
2021/01/13 01:55:36;;;;;;;;;;;;;;;21.75;25.03;96746.38;5020032;28;1058;-75
2021/01/13 01:58:02;;;;;;;;;;;;;;;21.56;25.32;96739.22;5006380;28;953;-75
2021/01/13 02:00:30;;;;;;;;;;;;;;;21.90;25.34;96740.06;5006399;28;667;-74
2021/01/13 02:02:59;;;;;;;;;;;;;;;22.09;24.71;96727.38;5023276;28;626;-75
2021/01/13 02:05:25;;;;;;;;;;;;;;;22.26;24.78;96734.25;5023385;28;683;-74
2021/01/13 02:07:50;;;;;;;;;;;;;;;22.34;24.62;96729.81;5022836;28;943;-75
2021/01/13 02:10:16;;;;;;;;;;;;;;;22.35;24.66;96713.59;5005905;28;887;-75
2021/01/13 02:12:44;;;;;;;;;;;;;;;22.56;24.12;96717.41;5022993;28;1942;-75
2021/01/13 02:15:10;;;;;;;;;;;;;;;22.42;24.31;96729.44;5023046;28;674;-75
2021/01/13 02:17:36;;;;;;;;;;;;;;;22.19;24.63;96728.16;5023442;28;654;-75
2021/01/13 02:20:11;;;;;;;;;;;;;;;22.05;24.83;96718.28;5023257;28;587;-75
2021/01/13 02:22:57;;;;;;;;;;;;;;;21.50;25.34;96735.44;5022726;28;963;-75
2021/01/13 02:25:41;;;;;;;;;;;;;;;21.83;25.25;96753.28;5022127;28;1455;-74
2021/01/13 02:28:09;;;;;;;;;;;;;;;22.03;25.06;96757.63;5022842;28;654;-75
2021/01/13 02:31:00;;;;;;;;;;;;;;;22.18;24.70;96772.72;5005795;28;694;-74
2021/01/13 02:33:48;;;;;;;;;;;;;;;22.29;24.60;96770.13;5022742;28;1902;-75
2021/01/13 02:36:21;;;;;;;;;;;;;;;22.36;24.22;96771.84;5014658;28;1346;-74
2021/01/13 02:38:50;;;;;;;;;;;;;;;22.07;24.59;96767.53;5005350;28;838;-75
2021/01/13 02:41:16;;;;;;;;;;;;;;;21.63;25.32;96767.19;5022261;28;880;-75
2021/01/13 02:43:46;;;;;;;;;;;;;;;21.50;25.51;96772.22;5022472;28;961;-75
2021/01/13 02:46:11;;;;;;;;;;;;;;;21.85;25.11;96767.75;5005847;28;619;-75
2021/01/13 02:48:37;;;;;;;;;;;;;;;22.05;24.96;96777.75;5005581;28;670;-75
2021/01/13 02:51:02;;;;;;;;;;;;;;;22.31;24.54;96781.78;5005404;28;587;-75
2021/01/13 02:53:31;;;;;;;;;;;;;;;22.27;24.52;96775.47;5004900;28;1914;-74
2021/01/13 02:55:56;;;;;;;;;;;;;;;22.25;24.32;96778.03;5022009;28;947;-75
2021/01/13 02:58:37;;;;;;;;;;;;;;;22.43;24.15;96765.81;5022302;28;1099;-73
2021/01/13 03:01:06;;;;;;;;;;;;;;;22.18;24.28;96769.88;5022305;28;614;-74
2021/01/13 03:03:32;;;;;;;;;;;;;;;21.88;24.64;96766.03;5005210;28;659;-75
2021/01/13 03:06:01;;;;;;;;;;;;;;;21.60;25.07;96770.94;5022278;28;647;-74
2021/01/13 03:08:29;;;;;;;;;;;;;;;21.71;25.24;96762.78;5021886;28;1121;-74
2021/01/13 03:10:54;;;;;;;;;;;;;;;22.03;24.48;96760.47;5005064;28;903;-74
2021/01/13 03:13:20;;;;;;;;;;;;;;;22.24;24.13;96767.19;5004877;28;1979;-74
2021/01/13 03:15:45;;;;;;;;;;;;;;;22.29;24.28;96767.31;5004931;28;674;-75
2021/01/13 03:18:32;;;;;;;;;;;;;;;22.30;24.28;96757.53;5022293;28;670;-74
2021/01/13 03:21:06;;;;;;;;;;;;;;;22.22;24.40;96773.31;5021771;28;671;-75
2021/01/13 03:23:40;;;;;;;;;;;;;;;22.27;24.22;96775.47;5004470;28;868;-74
2021/01/13 03:26:05;;;;;;;;;;;;;;;22.43;23.76;96771.47;5004911;28;832;-75
2021/01/13 03:28:37;;;;;;;;;;;;;;;22.36;24.00;96778.28;5004712;28;710;-75
2021/01/13 03:31:03;;;;;;;;;;;;;;;21.74;24.90;96773.13;5021670;28;615;-74
2021/01/13 03:33:40;;;;;;;;;;;;;;;21.67;25.07;96764.97;5021668;28;1913;-75
2021/01/13 03:36:08;;;;;;;;;;;;;;;21.70;25.14;96772.50;5021466;28;656;-75
2021/01/13 03:38:34;;;;;;;;;;;;;;;21.97;24.69;96776.53;5004928;28;957;-74
2021/01/13 03:41:03;;;;;;;;;;;;;;;22.25;24.30;96777.25;5004268;28;967;-75
2021/01/13 03:43:33;;;;;;;;;;;;;;;22.40;23.96;96783.00;5021387;28;866;-74
2021/01/13 03:45:59;;;;;;;;;;;;;;;22.36;24.08;96778.28;5021702;28;650;-75
2021/01/13 03:48:43;;;;;;;;;;;;;;;22.30;24.28;96783.03;5021309;28;671;-75
2021/01/13 03:51:25;;;;;;;;;;;;;;;22.22;24.14;96795.97;5021267;28;697;-74
2021/01/13 03:53:51;;;;;;;;;;;;;;;21.78;24.54;96796.41;5007554;28;1907;-74
2021/01/13 03:56:20;;;;;;;;;;;;;;;21.36;25.25;96781.38;5040602;28;908;-74
2021/01/13 03:58:49;;;;;;;;;;;;;;;21.81;25.01;96792.63;5023785;28;631;-75
2021/01/13 04:01:21;;;;;;;;;;;;;;;22.09;24.40;96786.88;5041148;28;630;-74
2021/01/13 04:04:05;;;;;;;;;;;;;;;22.29;24.08;96800.53;5041121;28;655;-74
2021/01/13 04:06:30;;;;;;;;;;;;;;;22.31;24.27;96798.78;5040912;28;654;-74
2021/01/13 04:08:56;;;;;;;;;;;;;;;22.35;24.06;96799.38;5023237;28;1312;-74
2021/01/13 04:11:21;;;;;;;;;;;;;;;22.40;23.85;96794.34;5023218;28;854;-75
2021/01/13 04:13:48;;;;;;;;;;;;;;;22.03;24.21;96791.63;5023481;28;1973;-74
2021/01/13 04:16:14;;;;;;;;;;;;;;;21.64;24.67;96802.72;5040474;28;598;-75
2021/01/13 04:18:40;;;;;;;;;;;;;;;21.63;25.07;96800.38;5040355;28;741;-74
2021/01/13 04:21:06;;;;;;;;;;;;;;;21.88;24.54;96810.56;5040487;28;591;-74
2021/01/13 04:23:31;;;;;;;;;;;;;;;22.00;24.44;96813.19;5040362;28;871;-74
2021/01/13 04:25:57;;;;;;;;;;;;;;;22.16;24.28;96814.09;5040175;28;923;-74
2021/01/13 04:28:23;;;;;;;;;;;;;;;22.16;24.05;96814.88;5040357;28;967;-73
2021/01/13 04:30:49;;;;;;;;;;;;;;;22.30;24.05;96825.53;5023180;28;647;-75
2021/01/13 04:33:14;;;;;;;;;;;;;;;22.42;23.70;96818.09;5007216;28;1879;-74
2021/01/13 04:35:40;;;;;;;;;;;;;;;22.40;23.71;96822.69;5040272;28;757;-73
2021/01/13 04:38:05;;;;;;;;;;;;;;;21.89;24.05;96806.44;5040145;28;813;-72
2021/01/13 04:40:32;;;;;;;;;;;;;;;21.50;24.79;96817.50;5022710;28;853;-75
2021/01/13 04:43:00;;;;;;;;;;;;;;;21.66;25.08;96817.19;5040026;28;857;-75
2021/01/13 04:45:33;;;;;;;;;;;;;;;22.02;24.03;96815.53;5040105;28;678;-75
2021/01/13 04:48:02;;;;;;;;;;;;;;;22.27;23.94;96815.16;5040308;28;671;-75
2021/01/13 04:50:28;;;;;;;;;;;;;;;22.18;23.96;96820.88;5040536;28;721;-75
2021/01/13 04:52:53;;;;;;;;;;;;;;;22.28;24.14;96822.41;5022584;28;1906;-75
2021/01/13 04:55:25;;;;;;;;;;;;;;;22.27;24.02;96806.66;5021791;28;968;-75
2021/01/13 04:58:00;;;;;;;;;;;;;;;22.33;23.53;96815.31;5039441;28;940;-74
2021/01/13 05:00:45;;;;;;;;;;;;;;;21.71;24.60;96805.25;5039420;28;611;-75
2021/01/13 05:03:23;;;;;;;;;;;;;;;21.55;24.45;96805.56;5038999;28;1279;-75
2021/01/13 05:05:49;;;;;;;;;;;;;;;21.94;24.26;96797.31;5039563;28;678;-75
2021/01/13 05:08:27;;;;;;;;;;;;;;;22.14;24.17;96800.44;5021733;28;1333;-75
2021/01/13 05:10:56;;;;;;;;;;;;;;;22.22;23.97;96795.19;5038730;28;915;-75
2021/01/13 05:13:21;;;;;;;;;;;;;;;22.25;23.80;96792.19;5039257;28;1976;-75
2021/01/13 05:15:54;;;;;;;;;;;;;;;22.30;23.73;96783.03;5021825;28;667;-75
2021/01/13 05:18:24;;;;;;;;;;;;;;;22.38;23.66;96777.00;5021793;28;670;-75
2021/01/13 05:20:55;;;;;;;;;;;;;;;22.30;23.64;96768.88;5021689;28;711;-75
2021/01/13 05:23:21;;;;;;;;;;;;;;;22.26;23.66;96768.25;5021361;28;1359;-75
2021/01/13 05:25:48;;;;;;;;;;;;;;;22.31;23.35;96764.75;5038500;28;925;-74
2021/01/13 05:28:17;;;;;;;;;;;;;;;22.23;23.56;96766.41;5039058;28;607;-75
2021/01/13 05:30:55;;;;;;;;;;;;;;;22.25;23.53;96760.25;5039909;28;641;-75
2021/01/13 05:33:31;;;;;;;;;;;;;;;22.25;23.35;96778.03;5042221;28;1971;-75
2021/01/13 05:35:57;;;;;;;;;;;;;;;20.30;23.59;96495.25;5025357;28;701;-75
2021/01/13 05:38:39;;;;;;;;;;;;;;;21.67;23.90;96773.47;5042304;28;928;-75
2021/01/13 05:41:11;;;;;;;;;;;;;;;21.54;24.43;96782.13;5024752;28;853;-75
2021/01/13 05:43:46;;;;;;;;;;;;;;;21.90;23.97;96779.69;5042440;28;599;-75
2021/01/13 05:46:12;;;;;;;;;;;;;;;22.39;23.29;96781.44;5042098;28;693;-75
2021/01/13 05:48:39;;;;;;;;;;;;;;;22.28;23.32;96788.41;5042033;28;623;-75
2021/01/13 05:51:05;;;;;;;;;;;;;;;22.50;23.00;96787.38;5042179;28;607;-75
2021/01/13 05:56:03;;;;;;;;;;;;;;;22.50;22.95;96793.03;5138646;27;1357;-73
2021/01/13 05:58:28;;;;;;;;;;;;;;;22.63;22.78;96794.34;5154846;27;602;-73
2021/01/13 06:00:55;;;;;;;;;;;;;;;22.34;22.91;96808.38;5138263;28;593;-73
2021/01/13 06:03:22;;;;;;;;;;;;;;;21.93;23.59;96812.75;5138572;28;656;-73
2021/01/13 06:05:49;;;;;;;;;;;;;;;21.66;23.80;96817.19;5138299;28;864;-73
2021/01/13 06:08:14;;;;;;;;;;;;;;;21.79;24.17;96822.66;5137800;27;843;-73
2021/01/13 06:10:40;;;;;;;;;;;;;;;22.25;23.44;96822.56;5138080;27;926;-73
2021/01/13 06:13:05;;;;;;;;;;;;;;;22.27;23.41;96826.50;5154673;27;902;-73
2021/01/13 06:15:31;;;;;;;;;;;;;;;22.35;23.20;96833.41;5138338;28;1976;-73
2021/01/13 06:17:57;;;;;;;;;;;;;;;22.40;23.35;96829.13;5137932;27;732;-73
2021/01/13 06:20:23;;;;;;;;;;;;;;;22.42;23.25;96837.16;5153598;27;924;-75
2021/01/13 06:22:49;;;;;;;;;;;;;;;22.47;22.90;96839.34;5154113;27;910;-75
2021/01/13 06:25:28;;;;;;;;;;;;;;;22.32;22.97;96854.19;5138111;28;949;-75
2021/01/13 06:27:59;;;;;;;;;;;;;;;21.79;23.60;96848.16;5138088;28;668;-75
2021/01/13 06:30:28;;;;;;;;;;;;;;;21.68;24.03;96851.47;5137781;28;625;-74
2021/01/13 06:32:57;;;;;;;;;;;;;;;22.02;23.64;96855.19;5137726;27;681;-75
2021/01/13 06:35:31;;;;;;;;;;;;;;;22.42;23.25;96857.78;5137486;28;1976;-75
2021/01/13 06:37:56;;;;;;;;;;;;;;;22.32;23.22;96856.22;5137476;28;920;-74
2021/01/13 06:40:22;;;;;;;;;;;;;;;22.43;23.36;96869.88;5154471;27;591;-75
2021/01/13 06:42:48;;;;;;;;;;;;;;;22.33;23.14;96875.63;5137583;28;668;-74
2021/01/13 06:45:13;;;;;;;;;;;;;;;22.39;23.19;96872.13;5137360;28;641;-75
2021/01/13 06:47:55;;;;;;;;;;;;;;;22.48;23.12;96869.25;5137488;27;705;-75
2021/01/13 06:50:36;;;;;;;;;;;;;;;22.32;22.97;96868.34;5137360;28;693;-75
2021/01/13 06:53:05;;;;;;;;;;;;;;;21.87;23.72;96871.28;5137120;28;886;-75
2021/01/13 06:55:32;;;;;;;;;;;;;;;21.85;24.11;96869.69;5136798;28;1906;-75
2021/01/13 06:58:10;;;;;;;;;;;;;;;22.25;23.47;96874.38;5137551;27;720;-75
2021/01/13 07:00:35;;;;;;;;;;;;;;;22.33;23.23;96860.66;5137567;28;618;-75
2021/01/13 07:03:20;;;;;;;;;;;;;;;22.55;22.78;96863.25;5137081;28;641;-73
2021/01/13 07:05:45;;;;;;;;;;;;;;;22.48;23.09;96863.56;5132916;27;698;-73
2021/01/13 07:08:11;;;;;;;;;;;;;;;22.34;23.00;96863.00;5123342;28;1202;-74
2021/01/13 07:10:39;;;;;;;;;;;;;;;21.84;23.67;96856.78;5123238;28;908;-74
2021/01/13 07:13:05;;;;;;;;;;;;;;;21.74;23.78;96849.56;5123002;28;1016;-73
2021/01/13 07:15:32;;;;;;;;;;;;;;;21.78;23.97;96857.91;5105818;28;1909;-74
2021/01/13 07:18:08;;;;;;;;;;;;;;;22.18;23.57;96857.72;5105446;28;701;-74
2021/01/13 07:20:40;;;;;;;;;;;;;;;22.40;23.30;96868.03;5105569;28;710;-74
2021/01/13 07:23:06;;;;;;;;;;;;;;;22.33;23.27;96864.28;5122687;28;1142;-72
2021/01/13 07:25:32;;;;;;;;;;;;;;;22.33;23.34;96857.81;5121515;28;1212;-74
2021/01/13 07:28:01;;;;;;;;;;;;;;;22.35;22.90;96872.28;5121827;28;1236;-74
2021/01/13 07:30:42;;;;;;;;;;;;;;;22.51;23.09;96869.09;5122325;28;1129;-73
2021/01/13 07:33:13;;;;;;;;;;;;;;;21.93;23.50;96872.22;5119952;28;1374;-74
2021/01/13 07:35:42;;;;;;;;;;;;;;;21.62;23.98;96870.34;5121498;28;2008;-74
2021/01/13 07:38:07;;;;;;;;;;;;;;;21.55;24.10;96879.16;5118570;28;1106;-73
2021/01/13 07:40:36;;;;;;;;;;;;;;;21.96;23.51;96876.91;5103528;28;1292;-74
2021/01/13 07:43:05;;;;;;;;;;;;;;;22.25;23.14;96885.69;5121864;28;1198;-73
2021/01/13 07:45:30;;;;;;;;;;;;;;;22.30;23.38;96887.88;5101596;28;1399;-74
2021/01/13 07:47:56;;;;;;;;;;;;;;;22.46;23.11;96891.63;5120142;27;1185;-74
2021/01/13 07:50:21;;;;;;;;;;;;;;;22.48;22.94;96891.91;5121612;28;1300;-74
2021/01/13 07:52:48;;;;;;;;;;;;;;;22.28;23.22;96890.44;5121156;28;1224;-74
2021/01/13 07:55:20;;;;;;;;;;;;;;;22.57;22.98;96898.34;5121008;28;1910;-74
2021/01/13 07:57:49;;;;;;;;;;;;;;;22.30;23.02;96899.22;5103792;28;1268;-75
2021/01/13 08:00:24;;;;;;;;;;;;;;;21.76;23.48;96889.53;5121555;28;1165;-74
2021/01/13 08:03:09;;;;;;;;;;;;;;;21.87;23.74;96893.94;5101243;28;1181;-74
2021/01/13 08:06:02;;;;;;;;;;;;;;;22.09;23.64;96888.84;5119570;28;1158;-74
2021/01/13 08:08:36;;;;;;;;;;;;;;;22.18;23.22;96886.03;5103939;28;1125;-74
2021/01/13 08:11:01;;;;;;;;;;;;;;;22.44;22.77;96892.09;5104037;28;834;-74
2021/01/13 08:13:39;;;;;;;;;;;;;;;22.30;23.27;96890.72;5104354;28;709;-75
2021/01/13 08:16:37;;;;;;;;;;;;;;;22.38;22.89;96888.31;5121377;28;1046;-74
2021/01/13 08:19:15;;;;;;;;;;;;;;;22.49;22.93;96893.50;5074959;28;1183;-73
2021/01/13 08:21:53;;;;;;;;;;;;;;;22.48;22.74;96897.59;5120721;28;1289;-74
2021/01/13 08:24:25;;;;;;;;;;;;;;;22.21;23.04;96887.91;5120322;28;1201;-73
2021/01/13 08:26:51;;;;;;;;;;;;;;;21.85;23.57;96892.34;5104154;28;1157;-73
2021/01/13 08:29:20;;;;;;;;;;;;;;;21.56;23.75;96894.88;5121210;28;1149;-74
2021/01/13 08:31:50;;;;;;;;;;;;;;;21.97;23.72;96898.34;5121695;28;680;-75
2021/01/13 08:34:15;;;;;;;;;;;;;;;22.23;23.21;96896.72;5122011;28;1905;-75
2021/01/13 08:36:53;;;;;;;;;;;;;;;22.35;22.71;96895.75;5104147;28;668;-74
2021/01/13 08:39:19;;;;;;;;;;;;;;;22.44;22.75;96894.94;5121429;28;1034;-75
2021/01/13 08:41:45;;;;;;;;;;;;;;;22.53;22.69;96896.94;5103832;28;1188;-75
2021/01/13 08:44:11;;;;;;;;;;;;;;;22.50;22.59;96895.06;5121516;28;618;-73
2021/01/13 08:46:38;;;;;;;;;;;;;;;22.47;22.92;96896.81;5121504;28;704;-74
2021/01/13 08:49:04;;;;;;;;;;;;;;;22.50;22.66;96901.53;5121485;28;669;-75
2021/01/13 08:51:30;;;;;;;;;;;;;;;21.99;23.38;96895.81;5121488;28;676;-72
2021/01/13 08:54:15;;;;;;;;;;;;;;;21.99;24.11;96901.47;5120789;28;1952;-75
2021/01/13 08:56:56;;;;;;;;;;;;;;;21.70;24.25;96905.56;5120699;28;967;-75
2021/01/13 08:59:38;;;;;;;;;;;;;;;21.75;23.95;96909.81;5121158;28;704;-75
2021/01/13 09:02:05;;;;;;;;;;;;;;;21.53;24.50;96907.16;5121185;28;719;-75
2021/01/13 09:04:54;;;;;;;;;;;;;;;22.00;23.87;96903.03;5121129;28;676;-74
2021/01/13 09:07:20;;;;;;;;;;;;;;;22.27;23.49;96905.84;5115800;28;1477;-75
2021/01/13 09:10:01;;;;;;;;;;;;;;;22.33;23.45;96900.34;5120725;28;956;-74
2021/01/13 09:12:34;;;;;;;;;;;;;;;22.46;23.20;96883.91;5120756;28;911;-75
2021/01/13 09:15:09;;;;;;;;;;;;;;;22.54;23.02;96890.81;5120959;28;1905;-75
2021/01/13 09:17:34;;;;;;;;;;;;;;;22.40;23.19;96885.81;5120923;28;669;-74
2021/01/13 09:20:03;;;;;;;;;;;;;;;22.51;22.92;96891.75;5120991;28;640;-75
2021/01/13 09:22:39;;;;;;;;;;;;;;;22.49;23.06;96882.19;5103201;28;808;-75
2021/01/13 09:25:05;;;;;;;;;;;;;;;21.94;23.42;96882.28;5103051;28;971;-74
2021/01/13 09:27:34;;;;;;;;;;;;;;;21.56;24.47;96883.56;5102782;28;891;-75
2021/01/13 09:29:59;;;;;;;;;;;;;;;21.74;23.91;96875.06;5120513;28;613;-75
2021/01/13 09:32:25;;;;;;;;;;;;;;;21.99;23.80;96870.31;5103366;28;681;-75
2021/01/13 09:34:52;;;;;;;;;;;;;;;22.29;23.27;96880.66;5103301;28;1969;-74
2021/01/13 09:37:17;;;;;;;;;;;;;;;22.36;23.30;96871.81;5120740;28;637;-75
2021/01/13 09:40:01;;;;;;;;;;;;;;;22.38;23.13;96870.53;5120485;28;911;-74
2021/01/13 09:42:39;;;;;;;;;;;;;;;22.41;22.86;96863.94;5120329;28;899;-75
2021/01/13 09:45:05;;;;;;;;;;;;;;;22.51;22.96;96862.63;5120797;28;681;-75
2021/01/13 09:47:30;;;;;;;;;;;;;;;22.35;22.72;96870.25;5120853;28;589;-75
2021/01/13 09:49:57;;;;;;;;;;;;;;;21.94;23.57;96870.94;5120741;28;680;-75
2021/01/13 09:52:26;;;;;;;;;;;;;;;21.68;23.96;96874.13;5120779;28;844;-74
2021/01/13 09:54:52;;;;;;;;;;;;;;;21.84;23.68;96862.47;5119916;28;1978;-75
2021/01/13 09:57:17;;;;;;;;;;;;;;;22.09;23.54;96871.88;5120077;28;863;-75
2021/01/13 09:59:50;;;;;;;;;;;;;;;22.33;23.03;96866.31;5120462;28;876;-75
2021/01/13 10:02:18;;;;;;;;;;;;;;;22.34;22.99;96865.84;5102887;28;585;-75
2021/01/13 10:04:49;;;;;;;;;;;;;;;22.36;22.80;96868.97;5102758;28;665;-75
2021/01/13 10:07:14;;;;;;;;;;;;;;;22.38;23.09;96853.53;5120402;28;653;-75
2021/01/13 10:09:41;;;;;;;;;;;;;;;22.41;23.22;96852.59;5102040;28;876;-75
2021/01/13 10:12:07;;;;;;;;;;;;;;;22.56;22.94;96853.47;5102243;28;852;-75
2021/01/13 10:14:32;;;;;;;;;;;;;;;22.15;23.47;96886.97;5120203;28;1979;-75
2021/01/13 10:16:58;;;;;;;;;;;;;;;21.76;23.62;96849.91;5103237;28;613;-74
2021/01/13 10:19:26;;;;;;;;;;;;;;;21.76;23.84;96855.56;5102608;28;610;-75
2021/01/13 10:21:52;;;;;;;;;;;;;;;22.13;23.30;96837.75;5120139;28;684;-74
2021/01/13 10:24:17;;;;;;;;;;;;;;;22.28;23.12;96844.31;5102239;28;899;-74
2021/01/13 10:26:43;;;;;;;;;;;;;;;22.50;22.80;96835.56;5119952;28;808;-74
2021/01/13 10:29:10;;;;;;;;;;;;;;;22.56;22.72;96830.78;5120090;28;1008;-74
2021/01/13 10:31:35;;;;;;;;;;;;;;;22.44;22.82;96828.97;5102769;28;765;-75
2021/01/13 10:34:01;;;;;;;;;;;;;;;22.42;22.92;96831.47;5119998;28;1972;-74
2021/01/13 10:36:29;;;;;;;;;;;;;;;22.49;23.16;96825.47;5120440;28;692;-73
2021/01/13 10:38:55;;;;;;;;;;;;;;;22.02;23.54;96821.19;5120585;28;582;-74
2021/01/13 10:41:28;;;;;;;;;;;;;;;21.59;23.92;96817.50;5120985;28;1021;-74
2021/01/13 10:43:55;;;;;;;;;;;;;;;21.95;23.68;96815.88;5105945;28;829;-75
2021/01/13 10:46:20;;;;;;;;;;;;;;;22.21;23.28;96814.25;5106199;28;633;-75
2021/01/13 10:48:46;;;;;;;;;;;;;;;22.41;23.21;96813.69;5123759;28;689;-75
2021/01/13 10:51:11;;;;;;;;;;;;;;;22.40;23.11;96817.00;5106228;28;661;-75
2021/01/13 10:53:37;;;;;;;;;;;;;;;22.42;22.91;96820.13;5123412;28;1165;-75
2021/01/13 10:56:03;;;;;;;;;;;;;;;22.53;22.87;96809.84;5105697;28;1976;-75
2021/01/13 10:58:29;;;;;;;;;;;;;;;22.22;23.34;96812.97;5088928;28;1214;-75
2021/01/13 11:01:04;;;;;;;;;;;;;;;21.67;23.98;96801.78;5105726;28;924;-75
2021/01/13 11:03:33;;;;;;;;;;;;;;;21.61;24.28;96803.69;5123819;28;625;-75
2021/01/13 11:05:59;;;;;;;;;;;;;;;22.17;23.63;96805.13;5123623;28;728;-75
2021/01/13 11:08:24;;;;;;;;;;;;;;;22.21;23.56;96800.06;5105665;28;976;-75
2021/01/13 11:10:50;;;;;;;;;;;;;;;22.17;23.52;96795.84;5105410;28;1029;-74
2021/01/13 11:13:15;;;;;;;;;;;;;;;22.27;23.17;96800.97;5123319;28;890;-75
2021/01/13 11:15:47;;;;;;;;;;;;;;;22.33;23.17;96807.59;5123157;28;1897;-75
2021/01/13 11:18:12;;;;;;;;;;;;;;;22.31;23.35;96801.59;5123281;28;640;-75
2021/01/13 11:20:38;;;;;;;;;;;;;;;22.39;23.08;96818.28;5123613;28;613;-74
2021/01/13 11:23:05;;;;;;;;;;;;;;;22.43;23.03;96813.19;5105445;28;673;-75
2021/01/13 11:25:36;;;;;;;;;;;;;;;22.10;23.55;96816.78;5123099;28;660;-75
2021/01/13 11:28:02;;;;;;;;;;;;;;;21.75;23.85;96814.34;5123043;28;691;-75
2021/01/13 11:30:28;;;;;;;;;;;;;;;21.71;24.17;96819.41;5122962;28;867;-75
2021/01/13 11:32:55;;;;;;;;;;;;;;;22.02;23.83;96821.19;5122770;28;946;-75
2021/01/13 11:35:30;;;;;;;;;;;;;;;22.17;23.64;96827.78;5122957;28;1901;-75
2021/01/13 11:38:20;;;;;;;;;;;;;;;22.21;23.37;96844.63;5122851;28;640;-75
2021/01/13 11:40:57;;;;;;;;;;;;;;;22.31;23.31;96844.13;5122692;28;697;-75
2021/01/13 11:43:41;;;;;;;;;;;;;;;22.41;23.17;96835.59;5122767;28;664;-75
2021/01/13 11:46:11;;;;;;;;;;;;;;;21.96;23.74;96834.44;5122526;28;914;-75
2021/01/13 11:48:46;;;;;;;;;;;;;;;21.61;24.10;96837.66;5104579;28;844;-75
2021/01/13 11:51:12;;;;;;;;;;;;;;;21.66;24.32;96831.34;5122651;28;625;-75
2021/01/13 11:53:37;;;;;;;;;;;;;;;22.12;23.83;96836.16;5104596;28;1091;-74
2021/01/13 11:56:03;;;;;;;;;;;;;;;22.25;23.64;96840.38;5122379;28;1905;-75
2021/01/13 11:58:30;;;;;;;;;;;;;;;22.28;23.33;96839.41;5122646;28;618;-75
2021/01/13 12:00:56;;;;;;;;;;;;;;;22.55;22.98;96832.06;5122564;28;972;-74
2021/01/13 12:03:23;;;;;;;;;;;;;;;22.57;23.19;96838.03;5122020;28;878;-75
2021/01/13 12:05:49;;;;;;;;;;;;;;;22.35;23.52;96833.41;5122575;28;821;-75
2021/01/13 12:08:17;;;;;;;;;;;;;;;22.19;23.57;96835.81;5122204;28;737;-75
2021/01/13 12:10:43;;;;;;;;;;;;;;;21.76;23.90;96837.75;5122153;28;633;-75
2021/01/13 12:13:09;;;;;;;;;;;;;;;21.59;24.36;96834.50;5122558;28;788;-75
2021/01/13 12:15:45;;;;;;;;;;;;;;;22.04;23.86;96835.69;5121984;28;1905;-75
2021/01/13 12:18:10;;;;;;;;;;;;;;;22.11;23.93;96835.38;5121762;28;916;-75
2021/01/13 12:20:36;;;;;;;;;;;;;;;22.40;23.42;96834.00;5104663;28;680;-75
2021/01/13 12:23:20;;;;;;;;;;;;;;;22.46;23.24;96832.09;5121929;28;638;-75
2021/01/13 12:25:45;;;;;;;;;;;;;;;22.36;23.46;96837.78;5121879;28;670;-75
2021/01/13 12:28:11;;;;;;;;;;;;;;;22.45;23.51;96841.88;5121510;28;973;-74
2021/01/13 12:30:36;;;;;;;;;;;;;;;22.55;23.06;96851.91;5121501;28;824;-75
2021/01/13 12:33:02;;;;;;;;;;;;;;;22.49;23.21;96859.50;5121815;28;975;-75
2021/01/13 12:35:28;;;;;;;;;;;;;;;22.47;23.28;96862.00;5121585;28;1966;-75
2021/01/13 12:37:53;;;;;;;;;;;;;;;21.94;23.98;96873.78;5121723;28;645;-75
2021/01/13 12:40:31;;;;;;;;;;;;;;;21.72;24.18;96860.59;5121583;28;640;-74
2021/01/13 12:43:09;;;;;;;;;;;;;;;21.80;24.42;96861.81;5121306;28;1041;-76
2021/01/13 12:45:34;;;;;;;;;;;;;;;22.07;23.71;96865.88;5121086;28;945;-75
2021/01/13 12:48:00;;;;;;;;;;;;;;;22.33;23.58;96858.59;5121770;28;756;-75
2021/01/13 12:50:25;;;;;;;;;;;;;;;22.45;23.25;96858.88;5121756;28;678;-75
2021/01/13 12:52:52;;;;;;;;;;;;;;;22.48;23.20;96852.22;5121392;28;709;-75
2021/01/13 12:55:17;;;;;;;;;;;;;;;22.46;23.53;96861.22;5121126;28;1901;-75
2021/01/13 12:57:49;;;;;;;;;;;;;;;22.43;23.29;96855.72;5120932;28;857;-75
2021/01/13 13:00:14;;;;;;;;;;;;;;;22.42;23.48;96860.59;5120864;28;943;-75
2021/01/13 13:02:40;;;;;;;;;;;;;;;21.93;23.80;96858.06;5121114;28;995;-74
2021/01/13 13:05:06;;;;;;;;;;;;;;;21.68;24.14;96871.28;5120718;28;629;-75
2021/01/13 13:07:34;;;;;;;;;;;;;;;21.85;24.49;96869.69;5121122;28;648;-75
2021/01/13 13:10:00;;;;;;;;;;;;;;;21.97;24.04;96882.13;5121133;28;756;-75
2021/01/13 13:12:25;;;;;;;;;;;;;;;22.30;23.61;96893.56;5121016;28;681;-75
2021/01/13 13:14:51;;;;;;;;;;;;;;;22.41;23.61;96884.53;5120916;28;1909;-75
2021/01/13 13:17:16;;;;;;;;;;;;;;;22.38;23.30;96893.22;5120761;28;877;-74